sensor_id;sensor_type;location;lat;lon;timestamp;P1;durP1;ratioP1;P2;durP2;ratioP2
77814;SDS011;67002;52.124;21.210;2023-04-24T00:03:21;40.80;;;19.70;;
77814;SDS011;67002;52.124;21.210;2023-04-24T00:06:49;46.00;;;20.70;;
77814;SDS011;67002;52.124;21.210;2023-04-24T00:10:18;40.80;;;19.90;;
77814;SDS011;67002;52.124;21.210;2023-04-24T00:14:03;45.70;;;19.60;;
77814;SDS011;67002;52.124;21.210;2023-04-24T00:17:41;44.50;;;21.10;;
77814;SDS011;67002;52.124;21.210;2023-04-24T00:21:18;44.00;;;20.10;;
77814;SDS011;67002;52.124;21.210;2023-04-24T00:25:03;42.70;;;19.60;;
77814;SDS011;67002;52.124;21.210;2023-04-24T00:28:39;40.10;;;18.60;;
77814;SDS011;67002;52.124;21.210;2023-04-24T00:32:22;42.00;;;19.20;;
77814;SDS011;67002;52.124;21.210;2023-04-24T00:36:25;47.60;;;20.40;;
77814;SDS011;67002;52.124;21.210;2023-04-24T00:39:54;41.50;;;20.20;;
77814;SDS011;67002;52.124;21.210;2023-04-24T00:43:41;44.70;;;23.10;;
77814;SDS011;67002;52.124;21.210;2023-04-24T00:47:19;44.70;;;21.80;;
77814;SDS011;67002;52.124;21.210;2023-04-24T00:50:46;41.60;;;20.30;;
77814;SDS011;67002;52.124;21.210;2023-04-24T00:54:14;39.70;;;19.30;;
77814;SDS011;67002;52.124;21.210;2023-04-24T00:58:09;44.30;;;20.60;;
77814;SDS011;67002;52.124;21.210;2023-04-24T01:01:48;39.90;;;20.40;;
77814;SDS011;67002;52.124;21.210;2023-04-24T01:05:16;45.80;;;22.00;;
77814;SDS011;67002;52.124;21.210;2023-04-24T01:08:56;45.90;;;20.30;;
77814;SDS011;67002;52.124;21.210;2023-04-24T01:12:28;41.60;;;20.00;;
77814;SDS011;67002;52.124;21.210;2023-04-24T01:16:23;44.70;;;20.20;;
77814;SDS011;67002;52.124;21.210;2023-04-24T01:20:00;44.00;;;22.80;;
77814;SDS011;67002;52.124;21.210;2023-04-24T01:23:27;43.80;;;20.50;;
77814;SDS011;67002;52.124;21.210;2023-04-24T01:27:31;46.10;;;21.50;;
77814;SDS011;67002;52.124;21.210;2023-04-24T01:30:47;41.70;;;20.70;;
77814;SDS011;67002;52.124;21.210;2023-04-24T01:34:34;46.10;;;20.50;;
77814;SDS011;67002;52.124;21.210;2023-04-24T01:38:18;45.40;;;21.20;;
77814;SDS011;67002;52.124;21.210;2023-04-24T01:42:01;40.50;;;21.10;;
77814;SDS011;67002;52.124;21.210;2023-04-24T01:45:55;45.70;;;21.70;;
77814;SDS011;67002;52.124;21.210;2023-04-24T01:49:41;39.90;;;20.20;;
77814;SDS011;67002;52.124;21.210;2023-04-24T01:53:10;43.80;;;19.80;;
77814;SDS011;67002;52.124;21.210;2023-04-24T01:56:48;41.60;;;21.50;;
77814;SDS011;67002;52.124;21.210;2023-04-24T02:00:35;49.70;;;22.30;;
77814;SDS011;67002;52.124;21.210;2023-04-24T02:04:12;45.20;;;22.00;;
77814;SDS011;67002;52.124;21.210;2023-04-24T02:07:53;47.30;;;21.30;;
77814;SDS011;67002;52.124;21.210;2023-04-24T02:11:38;49.20;;;21.00;;
77814;SDS011;67002;52.124;21.210;2023-04-24T02:14:48;37.60;;;18.10;;
77814;SDS011;67002;52.124;21.210;2023-04-24T02:18:30;44.70;;;20.80;;
77814;SDS011;67002;52.124;21.210;2023-04-24T02:22:04;43.70;;;20.00;;
77814;SDS011;67002;52.124;21.210;2023-04-24T02:25:40;49.90;;;21.60;;
77814;SDS011;67002;52.124;21.210;2023-04-24T02:29:34;46.70;;;21.50;;
77814;SDS011;67002;52.124;21.210;2023-04-24T02:33:02;49.90;;;21.80;;
77814;SDS011;67002;52.124;21.210;2023-04-24T02:36:40;42.40;;;22.10;;
77814;SDS011;67002;52.124;21.210;2023-04-24T02:40:21;44.90;;;22.50;;
77814;SDS011;67002;52.124;21.210;2023-04-24T02:43:55;51.10;;;24.50;;
77814;SDS011;67002;52.124;21.210;2023-04-24T02:47:56;48.90;;;23.50;;
77814;SDS011;67002;52.124;21.210;2023-04-24T02:51:30;57.40;;;23.80;;
77814;SDS011;67002;52.124;21.210;2023-04-24T02:54:48;55.60;;;25.40;;
77814;SDS011;67002;52.124;21.210;2023-04-24T02:58:26;49.90;;;24.00;;
77814;SDS011;67002;52.124;21.210;2023-04-24T03:02:04;57.80;;;23.30;;
77814;SDS011;67002;52.124;21.210;2023-04-24T03:06:08;52.30;;;23.60;;
77814;SDS011;67002;52.124;21.210;2023-04-24T03:09:19;52.00;;;23.90;;
77814;SDS011;67002;52.124;21.210;2023-04-24T03:12:57;56.20;;;27.40;;
77814;SDS011;67002;52.124;21.210;2023-04-24T03:16:33;57.90;;;25.40;;
77814;SDS011;67002;52.124;21.210;2023-04-24T03:20:18;53.10;;;25.00;;
77814;SDS011;67002;52.124;21.210;2023-04-24T03:23:53;61.20;;;25.60;;
77814;SDS011;67002;52.124;21.210;2023-04-24T03:27:39;64.70;;;28.30;;
77814;SDS011;67002;52.124;21.210;2023-04-24T03:31:17;59.10;;;27.40;;
77814;SDS011;67002;52.124;21.210;2023-04-24T03:35:04;64.70;;;26.80;;
77814;SDS011;67002;52.124;21.210;2023-04-24T03:38:39;63.60;;;26.70;;
77814;SDS011;67002;52.124;21.210;2023-04-24T03:42:29;58.70;;;28.20;;
77814;SDS011;67002;52.124;21.210;2023-04-24T03:45:55;57.30;;;27.50;;
77814;SDS011;67002;52.124;21.210;2023-04-24T03:49:43;61.20;;;28.20;;
77814;SDS011;67002;52.124;21.210;2023-04-24T03:53:06;59.30;;;25.80;;
77814;SDS011;67002;52.124;21.210;2023-04-24T03:56:41;57.80;;;26.80;;
77814;SDS011;67002;52.124;21.210;2023-04-24T04:00:34;58.10;;;27.10;;
77814;SDS011;67002;52.124;21.210;2023-04-24T04:04:04;57.10;;;27.20;;
77814;SDS011;67002;52.124;21.210;2023-04-24T04:07:34;62.10;;;24.50;;
77814;SDS011;67002;52.124;21.210;2023-04-24T04:11:11;53.60;;;23.40;;
77814;SDS011;67002;52.124;21.210;2023-04-24T04:14:58;56.60;;;25.00;;
77814;SDS011;67002;52.124;21.210;2023-04-24T04:18:45;59.10;;;26.00;;
77814;SDS011;67002;52.124;21.210;2023-04-24T04:22:05;56.80;;;25.40;;
77814;SDS011;67002;52.124;21.210;2023-04-24T04:25:40;58.60;;;25.30;;
77814;SDS011;67002;52.124;21.210;2023-04-24T04:29:26;51.80;;;26.30;;
77814;SDS011;67002;52.124;21.210;2023-04-24T04:33:02;56.80;;;27.00;;
77814;SDS011;67002;52.124;21.210;2023-04-24T04:36:49;57.20;;;24.00;;
77814;SDS011;67002;52.124;21.210;2023-04-24T04:40:27;54.90;;;27.50;;
77814;SDS011;67002;52.124;21.210;2023-04-24T04:44:03;60.70;;;27.10;;
77814;SDS011;67002;52.124;21.210;2023-04-24T04:47:38;54.80;;;27.40;;
77814;SDS011;67002;52.124;21.210;2023-04-24T04:51:25;57.50;;;27.00;;
77814;SDS011;67002;52.124;21.210;2023-04-24T04:55:01;46.80;;;24.40;;
77814;SDS011;67002;52.124;21.210;2023-04-24T04:58:40;56.70;;;25.30;;
77814;SDS011;67002;52.124;21.210;2023-04-24T05:02:34;56.50;;;26.40;;
77814;SDS011;67002;52.124;21.210;2023-04-24T05:06:05;54.70;;;27.00;;
77814;SDS011;67002;52.124;21.210;2023-04-24T05:09:36;54.90;;;25.40;;
77814;SDS011;67002;52.124;21.210;2023-04-24T05:13:20;54.00;;;25.70;;
77814;SDS011;67002;52.124;21.210;2023-04-24T05:16:45;56.90;;;25.30;;
77814;SDS011;67002;52.124;21.210;2023-04-24T05:20:42;48.40;;;24.50;;
77814;SDS011;67002;52.124;21.210;2023-04-24T05:24:10;54.90;;;26.10;;
77814;SDS011;67002;52.124;21.210;2023-04-24T05:27:46;52.40;;;23.10;;
77814;SDS011;67002;52.124;21.210;2023-04-24T05:31:50;51.00;;;26.20;;
77814;SDS011;67002;52.124;21.210;2023-04-24T05:35:09;56.80;;;26.50;;
77814;SDS011;67002;52.124;21.210;2023-04-24T05:38:45;50.40;;;23.10;;
77814;SDS011;67002;52.124;21.210;2023-04-24T05:42:31;46.20;;;23.40;;
77814;SDS011;67002;52.124;21.210;2023-04-24T05:46:06;55.50;;;25.50;;
77814;SDS011;67002;52.124;21.210;2023-04-24T05:49:51;49.70;;;24.80;;
77814;SDS011;67002;52.124;21.210;2023-04-24T05:53:28;60.80;;;26.90;;
77814;SDS011;67002;52.124;21.210;2023-04-24T05:57:11;61.90;;;28.60;;
77814;SDS011;67002;52.124;21.210;2023-04-24T06:01:05;57.00;;;26.60;;
77814;SDS011;67002;52.124;21.210;2023-04-24T06:04:39;66.40;;;27.00;;
77814;SDS011;67002;52.124;21.210;2023-04-24T06:08:26;65.00;;;25.50;;
77814;SDS011;67002;52.124;21.210;2023-04-24T06:12:05;62.50;;;24.00;;
77814;SDS011;67002;52.124;21.210;2023-04-24T06:15:38;48.30;;;25.20;;
77814;SDS011;67002;52.124;21.210;2023-04-24T06:19:28;47.20;;;24.00;;
77814;SDS011;67002;52.124;21.210;2023-04-24T06:23:12;54.70;;;21.00;;
77814;SDS011;67002;52.124;21.210;2023-04-24T06:26:42;44.20;;;20.10;;
77814;SDS011;67002;52.124;21.210;2023-04-24T06:30:24;39.70;;;20.90;;
77814;SDS011;67002;52.124;21.210;2023-04-24T06:33:56;32.90;;;18.70;;
77814;SDS011;67002;52.124;21.210;2023-04-24T06:37:42;35.30;;;21.80;;
77814;SDS011;67002;52.124;21.210;2023-04-24T06:41:36;38.80;;;18.50;;
77814;SDS011;67002;52.124;21.210;2023-04-24T06:44:57;33.00;;;18.60;;
77814;SDS011;67002;52.124;21.210;2023-04-24T06:49:02;33.40;;;17.70;;
77814;SDS011;67002;52.124;21.210;2023-04-24T06:52:35;29.40;;;16.70;;
77814;SDS011;67002;52.124;21.210;2023-04-24T06:56:07;32.30;;;17.30;;
77814;SDS011;67002;52.124;21.210;2023-04-24T06:59:57;30.80;;;17.30;;
77814;SDS011;67002;52.124;21.210;2023-04-24T07:03:04;28.30;;;17.50;;
77814;SDS011;67002;52.124;21.210;2023-04-24T07:06:49;26.40;;;15.80;;
77814;SDS011;67002;52.124;21.210;2023-04-24T07:10:24;27.20;;;17.20;;
77814;SDS011;67002;52.124;21.210;2023-04-24T07:14:10;33.70;;;17.80;;
77814;SDS011;67002;52.124;21.210;2023-04-24T07:17:48;30.40;;;16.00;;
77814;SDS011;67002;52.124;21.210;2023-04-24T07:21:25;31.00;;;16.90;;
77814;SDS011;67002;52.124;21.210;2023-04-24T07:25:23;32.00;;;16.40;;
77814;SDS011;67002;52.124;21.210;2023-04-24T07:28:41;26.00;;;16.00;;
77814;SDS011;67002;52.124;21.210;2023-04-24T07:32:37;30.40;;;15.80;;
77814;SDS011;67002;52.124;21.210;2023-04-24T07:36:15;30.10;;;14.20;;
77814;SDS011;67002;52.124;21.210;2023-04-24T07:39:34;30.80;;;16.80;;
77814;SDS011;67002;52.124;21.210;2023-04-24T07:43:12;32.90;;;18.00;;
77814;SDS011;67002;52.124;21.210;2023-04-24T07:46:49;29.40;;;16.90;;
77814;SDS011;67002;52.124;21.210;2023-04-24T07:50:25;33.20;;;17.30;;
77814;SDS011;67002;52.124;21.210;2023-04-24T07:54:10;27.30;;;15.80;;
77814;SDS011;67002;52.124;21.210;2023-04-24T07:57:48;25.80;;;16.60;;
77814;SDS011;67002;52.124;21.210;2023-04-24T08:01:44;23.90;;;16.00;;
77814;SDS011;67002;52.124;21.210;2023-04-24T08:05:03;26.80;;;17.40;;
77814;SDS011;67002;52.124;21.210;2023-04-24T08:08:39;27.70;;;15.30;;
77814;SDS011;67002;52.124;21.210;2023-04-24T08:12:24;25.90;;;15.60;;
77814;SDS011;67002;52.124;21.210;2023-04-24T08:16:12;26.80;;;14.20;;
77814;SDS011;67002;52.124;21.210;2023-04-24T08:19:58;25.40;;;15.70;;
77814;SDS011;67002;52.124;21.210;2023-04-24T08:23:15;26.30;;;16.10;;
77814;SDS011;67002;52.124;21.210;2023-04-24T08:26:57;19.80;;;13.30;;
77814;SDS011;67002;52.124;21.210;2023-04-24T08:30:43;27.70;;;16.20;;
77814;SDS011;67002;52.124;21.210;2023-04-24T08:34:24;25.90;;;14.80;;
77814;SDS011;67002;52.124;21.210;2023-04-24T08:38:18;27.80;;;15.20;;
77814;SDS011;67002;52.124;21.210;2023-04-24T08:41:34;25.10;;;13.80;;
77814;SDS011;67002;52.124;21.210;2023-04-24T08:45:17;22.80;;;15.30;;
77814;SDS011;67002;52.124;21.210;2023-04-24T08:49:20;25.80;;;15.80;;
77814;SDS011;67002;52.124;21.210;2023-04-24T08:53:07;23.40;;;13.90;;
77814;SDS011;67002;52.124;21.210;2023-04-24T08:56:17;23.20;;;13.60;;
77814;SDS011;67002;52.124;21.210;2023-04-24T09:00:15;27.90;;;16.00;;
77814;SDS011;67002;52.124;21.210;2023-04-24T09:03:33;27.90;;;17.30;;
77814;SDS011;67002;52.124;21.210;2023-04-24T09:07:21;34.00;;;15.80;;
77814;SDS011;67002;52.124;21.210;2023-04-24T09:10:47;28.00;;;17.00;;
77814;SDS011;67002;52.124;21.210;2023-04-24T09:14:51;26.20;;;16.60;;
77814;SDS011;67002;52.124;21.210;2023-04-24T09:18:27;28.00;;;17.90;;
77814;SDS011;67002;52.124;21.210;2023-04-24T09:22:06;29.00;;;18.30;;
77814;SDS011;67002;52.124;21.210;2023-04-24T09:25:30;26.50;;;15.80;;
77814;SDS011;67002;52.124;21.210;2023-04-24T09:29:01;25.90;;;13.80;;
77814;SDS011;67002;52.124;21.210;2023-04-24T09:36:28;23.80;;;14.70;;
77814;SDS011;67002;52.124;21.210;2023-04-24T09:40:12;26.20;;;15.10;;
77814;SDS011;67002;52.124;21.210;2023-04-24T09:43:38;24.60;;;14.90;;
77814;SDS011;67002;52.124;21.210;2023-04-24T09:47:23;23.50;;;14.20;;
77814;SDS011;67002;52.124;21.210;2023-04-24T09:51:03;23.00;;;14.70;;
77814;SDS011;67002;52.124;21.210;2023-04-24T09:54:39;37.40;;;18.80;;
77814;SDS011;67002;52.124;21.210;2023-04-24T09:58:34;28.00;;;14.00;;
77814;SDS011;67002;52.124;21.210;2023-04-24T10:01:53;25.30;;;17.90;;
77814;SDS011;67002;52.124;21.210;2023-04-24T10:05:48;24.20;;;14.10;;
77814;SDS011;67002;52.124;21.210;2023-04-24T10:09:16;19.30;;;11.70;;
77814;SDS011;67002;52.124;21.210;2023-04-24T10:12:52;22.10;;;14.70;;
77814;SDS011;67002;52.124;21.210;2023-04-24T10:16:56;23.60;;;14.40;;
77814;SDS011;67002;52.124;21.210;2023-04-24T10:20:15;21.50;;;15.40;;
77814;SDS011;67002;52.124;21.210;2023-04-24T10:24:11;25.60;;;15.90;;
77814;SDS011;67002;52.124;21.210;2023-04-24T10:27:49;24.80;;;13.90;;
77814;SDS011;67002;52.124;21.210;2023-04-24T10:31:36;27.60;;;15.60;;
77814;SDS011;67002;52.124;21.210;2023-04-24T10:35:05;22.40;;;13.00;;
77814;SDS011;67002;52.124;21.210;2023-04-24T10:38:24;24.90;;;13.50;;
77814;SDS011;67002;52.124;21.210;2023-04-24T10:42:01;19.50;;;12.30;;
77814;SDS011;67002;52.124;21.210;2023-04-24T10:45:37;20.90;;;12.80;;
77814;SDS011;67002;52.124;21.210;2023-04-24T10:49:28;22.60;;;13.70;;
77814;SDS011;67002;52.124;21.210;2023-04-24T10:53:11;23.50;;;13.10;;
77814;SDS011;67002;52.124;21.210;2023-04-24T10:56:56;18.70;;;13.40;;
77814;SDS011;67002;52.124;21.210;2023-04-24T11:00:16;23.50;;;12.20;;
77814;SDS011;67002;52.124;21.210;2023-04-24T11:04:12;22.00;;;12.70;;
77814;SDS011;67002;52.124;21.210;2023-04-24T11:07:30;26.90;;;14.20;;
77814;SDS011;67002;52.124;21.210;2023-04-24T11:11:11;18.70;;;11.40;;
77814;SDS011;67002;52.124;21.210;2023-04-24T11:15:05;16.20;;;12.40;;
77814;SDS011;67002;52.124;21.210;2023-04-24T11:18:23;20.30;;;11.90;;
77814;SDS011;67002;52.124;21.210;2023-04-24T11:22:00;21.80;;;11.60;;
77814;SDS011;67002;52.124;21.210;2023-04-24T11:26:18;19.50;;;12.80;;
77814;SDS011;67002;52.124;21.210;2023-04-24T11:33:25;22.20;;;12.70;;
77814;SDS011;67002;52.124;21.210;2023-04-24T11:36:59;17.70;;;11.40;;
77814;SDS011;67002;52.124;21.210;2023-04-24T11:40:37;23.00;;;13.30;;
77814;SDS011;67002;52.124;21.210;2023-04-24T11:43:57;17.20;;;12.30;;
77814;SDS011;67002;52.124;21.210;2023-04-24T11:47:33;26.60;;;13.10;;
77814;SDS011;67002;52.124;21.210;2023-04-24T11:51:10;20.80;;;12.20;;
77814;SDS011;67002;52.124;21.210;2023-04-24T11:54:54;18.30;;;10.60;;
77814;SDS011;67002;52.124;21.210;2023-04-24T11:58:40;20.80;;;11.40;;
77814;SDS011;67002;52.124;21.210;2023-04-24T12:02:26;22.80;;;12.90;;
77814;SDS011;67002;52.124;21.210;2023-04-24T12:06:05;21.50;;;13.20;;
77814;SDS011;67002;52.124;21.210;2023-04-24T12:09:44;18.90;;;11.30;;
77814;SDS011;67002;52.124;21.210;2023-04-24T12:13:11;19.80;;;13.10;;
77814;SDS011;67002;52.124;21.210;2023-04-24T12:16:48;19.20;;;12.30;;
77814;SDS011;67002;52.124;21.210;2023-04-24T12:20:37;22.00;;;11.90;;
77814;SDS011;67002;52.124;21.210;2023-04-24T12:24:11;16.70;;;12.10;;
77814;SDS011;67002;52.124;21.210;2023-04-24T12:28:09;17.60;;;11.00;;
77814;SDS011;67002;52.124;21.210;2023-04-24T12:31:26;18.90;;;12.50;;
77814;SDS011;67002;52.124;21.210;2023-04-24T12:35:18;15.90;;;10.00;;
77814;SDS011;67002;52.124;21.210;2023-04-24T12:39:14;23.40;;;11.30;;
77814;SDS011;67002;52.124;21.210;2023-04-24T12:42:30;19.60;;;11.00;;
77814;SDS011;67002;52.124;21.210;2023-04-24T12:46:07;15.20;;;9.00;;
77814;SDS011;67002;52.124;21.210;2023-04-24T12:49:46;26.10;;;9.60;;
77814;SDS011;67002;52.124;21.210;2023-04-24T12:53:42;15.80;;;9.50;;
77814;SDS011;67002;52.124;21.210;2023-04-24T12:57:18;15.50;;;8.10;;
77814;SDS011;67002;52.124;21.210;2023-04-24T13:00:38;12.00;;;8.10;;
77814;SDS011;67002;52.124;21.210;2023-04-24T13:04:17;13.10;;;8.40;;
77814;SDS011;67002;52.124;21.210;2023-04-24T13:07:51;11.60;;;7.60;;
77814;SDS011;67002;52.124;21.210;2023-04-24T13:11:46;15.40;;;9.10;;
77814;SDS011;67002;52.124;21.210;2023-04-24T13:15:31;15.80;;;9.10;;
77814;SDS011;67002;52.124;21.210;2023-04-24T13:19:01;13.70;;;9.10;;
77814;SDS011;67002;52.124;21.210;2023-04-24T13:22:30;15.80;;;9.60;;
77814;SDS011;67002;52.124;21.210;2023-04-24T13:26:05;12.70;;;8.10;;
77814;SDS011;67002;52.124;21.210;2023-04-24T13:29:50;18.10;;;11.60;;
77814;SDS011;67002;52.124;21.210;2023-04-24T13:33:27;16.40;;;9.50;;
77814;SDS011;67002;52.124;21.210;2023-04-24T13:37:15;16.60;;;9.00;;
77814;SDS011;67002;52.124;21.210;2023-04-24T13:40:43;9.30;;;5.70;;
77814;SDS011;67002;52.124;21.210;2023-04-24T13:44:38;10.60;;;6.30;;
77814;SDS011;67002;52.124;21.210;2023-04-24T13:47:56;13.90;;;7.80;;
77814;SDS011;67002;52.124;21.210;2023-04-24T13:51:40;11.00;;;7.30;;
77814;SDS011;67002;52.124;21.210;2023-04-24T13:55:23;10.60;;;7.50;;
77814;SDS011;67002;52.124;21.210;2023-04-24T13:59:06;12.90;;;7.80;;
77814;SDS011;67002;52.124;21.210;2023-04-24T14:02:50;13.10;;;7.20;;
77814;SDS011;67002;52.124;21.210;2023-04-24T14:06:35;11.80;;;7.40;;
77814;SDS011;67002;52.124;21.210;2023-04-24T14:10:32;16.70;;;8.90;;
77814;SDS011;67002;52.124;21.210;2023-04-24T14:13:50;13.90;;;8.40;;
77814;SDS011;67002;52.124;21.210;2023-04-24T14:17:28;12.10;;;8.40;;
77814;SDS011;67002;52.124;21.210;2023-04-24T14:21:25;14.10;;;8.60;;
77814;SDS011;67002;52.124;21.210;2023-04-24T14:24:43;10.20;;;8.00;;
77814;SDS011;67002;52.124;21.210;2023-04-24T14:28:21;12.70;;;9.00;;
77814;SDS011;67002;52.124;21.210;2023-04-24T14:31:57;14.50;;;8.40;;
77814;SDS011;67002;52.124;21.210;2023-04-24T14:36:01;13.00;;;9.40;;
77814;SDS011;67002;52.124;21.210;2023-04-24T14:39:39;13.20;;;8.40;;
77814;SDS011;67002;52.124;21.210;2023-04-24T14:42:55;14.50;;;9.60;;
77814;SDS011;67002;52.124;21.210;2023-04-24T14:46:42;14.30;;;9.10;;
77814;SDS011;67002;52.124;21.210;2023-04-24T14:50:25;15.00;;;9.80;;
77814;SDS011;67002;52.124;21.210;2023-04-24T14:53:55;13.90;;;8.90;;
77814;SDS011;67002;52.124;21.210;2023-04-24T14:57:43;13.40;;;8.90;;
77814;SDS011;67002;52.124;21.210;2023-04-24T15:01:11;18.10;;;9.80;;
77814;SDS011;67002;52.124;21.210;2023-04-24T15:04:48;20.90;;;10.30;;
77814;SDS011;67002;52.124;21.210;2023-04-24T15:08:27;17.40;;;9.50;;
77814;SDS011;67002;52.124;21.210;2023-04-24T15:12:24;17.70;;;8.60;;
77814;SDS011;67002;52.124;21.210;2023-04-24T15:15:45;20.40;;;9.70;;
77814;SDS011;67002;52.124;21.210;2023-04-24T15:19:17;14.70;;;9.40;;
77814;SDS011;67002;52.124;21.210;2023-04-24T15:23:03;17.60;;;9.70;;
77814;SDS011;67002;52.124;21.210;2023-04-24T15:26:39;14.30;;;9.50;;
77814;SDS011;67002;52.124;21.210;2023-04-24T15:30:17;17.20;;;9.60;;
77814;SDS011;67002;52.124;21.210;2023-04-24T15:34:15;11.10;;;8.80;;
77814;SDS011;67002;52.124;21.210;2023-04-24T15:38:01;13.10;;;8.70;;
77814;SDS011;67002;52.124;21.210;2023-04-24T15:41:29;12.50;;;8.80;;
77814;SDS011;67002;52.124;21.210;2023-04-24T15:44:48;13.50;;;9.00;;
77814;SDS011;67002;52.124;21.210;2023-04-24T15:48:27;16.10;;;9.30;;
77814;SDS011;67002;52.124;21.210;2023-04-24T15:52:04;12.90;;;9.50;;
77814;SDS011;67002;52.124;21.210;2023-04-24T15:55:41;17.70;;;9.60;;
77814;SDS011;67002;52.124;21.210;2023-04-24T15:59:19;16.10;;;10.50;;
77814;SDS011;67002;52.124;21.210;2023-04-24T16:03:15;14.80;;;9.60;;
77814;SDS011;67002;52.124;21.210;2023-04-24T16:06:33;16.30;;;9.70;;
77814;SDS011;67002;52.124;21.210;2023-04-24T16:10:18;19.60;;;9.10;;
77814;SDS011;67002;52.124;21.210;2023-04-24T16:14:13;12.50;;;8.70;;
77814;SDS011;67002;52.124;21.210;2023-04-24T16:17:32;17.90;;;9.40;;
77814;SDS011;67002;52.124;21.210;2023-04-24T16:21:28;17.30;;;9.20;;
77814;SDS011;67002;52.124;21.210;2023-04-24T16:25:14;15.90;;;9.50;;
77814;SDS011;67002;52.124;21.210;2023-04-24T16:28:55;16.30;;;9.60;;
77814;SDS011;67002;52.124;21.210;2023-04-24T16:32:28;22.00;;;10.60;;
77814;SDS011;67002;52.124;21.210;2023-04-24T16:35:48;20.30;;;11.70;;
77814;SDS011;67002;52.124;21.210;2023-04-24T16:39:26;17.00;;;11.40;;
77814;SDS011;67002;52.124;21.210;2023-04-24T16:43:02;19.90;;;11.00;;
77814;SDS011;67002;52.124;21.210;2023-04-24T16:46:48;17.70;;;10.10;;
77814;SDS011;67002;52.124;21.210;2023-04-24T16:50:24;18.00;;;10.70;;
77814;SDS011;67002;52.124;21.210;2023-04-24T16:54:12;19.80;;;10.70;;
77814;SDS011;67002;52.124;21.210;2023-04-24T16:57:56;25.20;;;11.60;;
77814;SDS011;67002;52.124;21.210;2023-04-24T17:01:16;20.40;;;11.50;;
77814;SDS011;67002;52.124;21.210;2023-04-24T17:05:01;27.50;;;12.30;;
77814;SDS011;67002;52.124;21.210;2023-04-24T17:08:42;25.70;;;12.10;;
77814;SDS011;67002;52.124;21.210;2023-04-24T17:12:15;27.90;;;12.30;;
77814;SDS011;67002;52.124;21.210;2023-04-24T17:16:00;22.80;;;12.00;;
77814;SDS011;67002;52.124;21.210;2023-04-24T17:19:37;24.80;;;13.70;;
77814;SDS011;67002;52.124;21.210;2023-04-24T17:23:15;26.90;;;13.90;;
77814;SDS011;67002;52.124;21.210;2023-04-24T17:27:11;28.60;;;13.20;;
77814;SDS011;67002;52.124;21.210;2023-04-24T17:30:30;22.00;;;12.70;;
77814;SDS011;67002;52.124;21.210;2023-04-24T17:34:06;35.10;;;17.10;;
77814;SDS011;67002;52.124;21.210;2023-04-24T17:38:10;34.70;;;16.90;;
77814;SDS011;67002;52.124;21.210;2023-04-24T17:41:29;33.90;;;17.90;;
77814;SDS011;67002;52.124;21.210;2023-04-24T17:45:08;35.50;;;17.10;;
77814;SDS011;67002;52.124;21.210;2023-04-24T17:48:55;30.60;;;16.30;;
77814;SDS011;67002;52.124;21.210;2023-04-24T17:52:20;33.00;;;15.90;;
77814;SDS011;67002;52.124;21.210;2023-04-24T17:56:04;28.70;;;14.10;;
77814;SDS011;67002;52.124;21.210;2023-04-24T17:59:49;34.00;;;16.10;;
77814;SDS011;67002;52.124;21.210;2023-04-24T18:03:27;33.00;;;15.30;;
77814;SDS011;67002;52.124;21.210;2023-04-24T18:07:22;35.70;;;14.70;;
77814;SDS011;67002;52.124;21.210;2023-04-24T18:10:44;26.60;;;14.50;;
77814;SDS011;67002;52.124;21.210;2023-04-24T18:14:37;29.70;;;14.40;;
77814;SDS011;67002;52.124;21.210;2023-04-24T18:17:58;31.40;;;15.80;;
77814;SDS011;67002;52.124;21.210;2023-04-24T18:21:37;37.00;;;16.50;;
77814;SDS011;67002;52.124;21.210;2023-04-24T18:25:12;25.90;;;14.30;;
77814;SDS011;67002;52.124;21.210;2023-04-24T18:29:06;35.20;;;16.60;;
77814;SDS011;67002;52.124;21.210;2023-04-24T18:32:32;38.90;;;18.30;;
77814;SDS011;67002;52.124;21.210;2023-04-24T18:36:17;40.80;;;18.00;;
77814;SDS011;67002;52.124;21.210;2023-04-24T18:40:14;40.30;;;18.50;;
77814;SDS011;67002;52.124;21.210;2023-04-24T18:43:51;36.80;;;17.20;;
77814;SDS011;67002;52.124;21.210;2023-04-24T18:47:29;32.80;;;18.20;;
77814;SDS011;67002;52.124;21.210;2023-04-24T18:50:49;42.20;;;17.40;;
77814;SDS011;67002;52.124;21.210;2023-04-24T18:54:48;32.00;;;17.20;;
77814;SDS011;67002;52.124;21.210;2023-04-24T18:58:03;40.30;;;17.10;;
77814;SDS011;67002;52.124;21.210;2023-04-24T19:01:42;35.90;;;17.20;;
77814;SDS011;67002;52.124;21.210;2023-04-24T19:05:48;32.40;;;18.30;;
77814;SDS011;67002;52.124;21.210;2023-04-24T19:09:14;36.00;;;16.70;;
77814;SDS011;67002;52.124;21.210;2023-04-24T19:12:34;32.30;;;16.70;;
77814;SDS011;67002;52.124;21.210;2023-04-24T19:16:31;51.90;;;19.90;;
77814;SDS011;67002;52.124;21.210;2023-04-24T19:19:50;32.10;;;14.90;;
77814;SDS011;67002;52.124;21.210;2023-04-24T19:23:27;32.90;;;17.10;;
77814;SDS011;67002;52.124;21.210;2023-04-24T19:27:06;40.60;;;16.50;;
77814;SDS011;67002;52.124;21.210;2023-04-24T19:30:41;38.80;;;18.90;;
77814;SDS011;67002;52.124;21.210;2023-04-24T19:34:45;40.50;;;17.60;;
77814;SDS011;67002;52.124;21.210;2023-04-24T19:38:13;42.20;;;17.70;;
77814;SDS011;67002;52.124;21.210;2023-04-24T19:41:51;38.10;;;18.40;;
77814;SDS011;67002;52.124;21.210;2023-04-24T19:45:17;37.60;;;18.20;;
77814;SDS011;67002;52.124;21.210;2023-04-24T19:49:22;36.50;;;16.70;;
77814;SDS011;67002;52.124;21.210;2023-04-24T19:52:39;38.00;;;18.70;;
77814;SDS011;67002;52.124;21.210;2023-04-24T19:56:17;37.80;;;17.00;;
77814;SDS011;67002;52.124;21.210;2023-04-24T19:59:53;36.20;;;18.30;;
77814;SDS011;67002;52.124;21.210;2023-04-24T20:03:38;38.50;;;17.80;;
77814;SDS011;67002;52.124;21.210;2023-04-24T20:07:39;32.80;;;18.00;;
77814;SDS011;67002;52.124;21.210;2023-04-24T20:11:13;38.80;;;18.20;;
77814;SDS011;67002;52.124;21.210;2023-04-24T20:14:49;38.70;;;18.00;;
77814;SDS011;67002;52.124;21.210;2023-04-24T20:18:06;37.20;;;17.40;;
77814;SDS011;67002;52.124;21.210;2023-04-24T20:22:09;37.80;;;17.20;;
77814;SDS011;67002;52.124;21.210;2023-04-24T20:25:58;39.60;;;20.30;;
77814;SDS011;67002;52.124;21.210;2023-04-24T20:29:17;41.10;;;18.50;;
77814;SDS011;67002;52.124;21.210;2023-04-24T20:33:03;43.90;;;19.60;;
77814;SDS011;67002;52.124;21.210;2023-04-24T20:36:30;44.00;;;20.70;;
77814;SDS011;67002;52.124;21.210;2023-04-24T20:40:18;45.80;;;21.00;;
77814;SDS011;67002;52.124;21.210;2023-04-24T20:43:36;43.30;;;19.40;;
77814;SDS011;67002;52.124;21.210;2023-04-24T20:47:44;47.90;;;19.90;;
77814;SDS011;67002;52.124;21.210;2023-04-24T20:51:03;39.20;;;17.70;;
77814;SDS011;67002;52.124;21.210;2023-04-24T20:54:38;43.10;;;19.40;;
77814;SDS011;67002;52.124;21.210;2023-04-24T20:58:33;47.60;;;20.30;;
77814;SDS011;67002;52.124;21.210;2023-04-24T21:02:02;38.60;;;20.80;;
77814;SDS011;67002;52.124;21.210;2023-04-24T21:05:30;44.20;;;20.10;;
77814;SDS011;67002;52.124;21.210;2023-04-24T21:09:17;49.80;;;22.10;;
77814;SDS011;67002;52.124;21.210;2023-04-24T21:12:43;47.60;;;21.30;;